sensor_id;sensor_type;location;lat;lon;timestamp;P1;durP1;ratioP1;P2;durP2;ratioP2
47429;SDS011;33181;49.246;7.372;2023-02-03T00:01:14;10.47;;;6.20;;
47429;SDS011;33181;49.246;7.372;2023-02-03T00:03:40;12.93;;;6.97;;
47429;SDS011;33181;49.246;7.372;2023-02-03T00:06:06;9.30;;;6.53;;
47429;SDS011;33181;49.246;7.372;2023-02-03T00:08:32;9.00;;;6.53;;
47429;SDS011;33181;49.246;7.372;2023-02-03T00:10:58;15.30;;;6.30;;
47429;SDS011;33181;49.246;7.372;2023-02-03T00:13:24;10.30;;;6.50;;
47429;SDS011;33181;49.246;7.372;2023-02-03T00:15:50;8.23;;;6.30;;
47429;SDS011;33181;49.246;7.372;2023-02-03T00:18:16;10.57;;;6.60;;
47429;SDS011;33181;49.246;7.372;2023-02-03T00:20:42;10.40;;;6.50;;
47429;SDS011;33181;49.246;7.372;2023-02-03T00:23:09;8.57;;;6.40;;
47429;SDS011;33181;49.246;7.372;2023-02-03T00:25:36;10.40;;;6.17;;
47429;SDS011;33181;49.246;7.372;2023-02-03T00:28:03;12.27;;;7.13;;
47429;SDS011;33181;49.246;7.372;2023-02-03T00:30:34;12.07;;;7.57;;
47429;SDS011;33181;49.246;7.372;2023-02-03T00:33:01;8.37;;;6.33;;
47429;SDS011;33181;49.246;7.372;2023-02-03T00:35:29;9.53;;;6.40;;
47429;SDS011;33181;49.246;7.372;2023-02-03T00:37:55;11.60;;;6.83;;
47429;SDS011;33181;49.246;7.372;2023-02-03T00:40:22;9.70;;;6.63;;
47429;SDS011;33181;49.246;7.372;2023-02-03T00:42:50;10.97;;;6.43;;
47429;SDS011;33181;49.246;7.372;2023-02-03T00:45:16;10.13;;;6.70;;
47429;SDS011;33181;49.246;7.372;2023-02-03T00:47:42;10.43;;;6.80;;
47429;SDS011;33181;49.246;7.372;2023-02-03T00:50:10;10.53;;;6.90;;
47429;SDS011;33181;49.246;7.372;2023-02-03T00:52:36;10.93;;;6.93;;
47429;SDS011;33181;49.246;7.372;2023-02-03T00:55:03;8.10;;;6.50;;
47429;SDS011;33181;49.246;7.372;2023-02-03T00:57:30;10.00;;;7.00;;
47429;SDS011;33181;49.246;7.372;2023-02-03T00:59:56;11.37;;;6.00;;
47429;SDS011;33181;49.246;7.372;2023-02-03T01:02:22;8.40;;;6.40;;
47429;SDS011;33181;49.246;7.372;2023-02-03T01:04:48;7.10;;;5.53;;
47429;SDS011;33181;49.246;7.372;2023-02-03T01:07:13;8.13;;;5.80;;
47429;SDS011;33181;49.246;7.372;2023-02-03T01:09:40;10.23;;;6.60;;
47429;SDS011;33181;49.246;7.372;2023-02-03T01:12:05;9.67;;;6.07;;
47429;SDS011;33181;49.246;7.372;2023-02-03T01:14:31;9.20;;;6.30;;
47429;SDS011;33181;49.246;7.372;2023-02-03T01:16:57;8.10;;;6.17;;
47429;SDS011;33181;49.246;7.372;2023-02-03T01:19:24;8.73;;;6.20;;
47429;SDS011;33181;49.246;7.372;2023-02-03T01:21:50;10.00;;;6.03;;
47429;SDS011;33181;49.246;7.372;2023-02-03T01:24:15;10.90;;;6.30;;
47429;SDS011;33181;49.246;7.372;2023-02-03T01:26:41;9.57;;;6.27;;
47429;SDS011;33181;49.246;7.372;2023-02-03T01:29:08;12.70;;;6.77;;
47429;SDS011;33181;49.246;7.372;2023-02-03T01:31:35;8.33;;;5.83;;
47429;SDS011;33181;49.246;7.372;2023-02-03T01:34:04;8.23;;;6.30;;
47429;SDS011;33181;49.246;7.372;2023-02-03T01:36:35;7.57;;;5.60;;
47429;SDS011;33181;49.246;7.372;2023-02-03T01:39:00;9.63;;;5.90;;
47429;SDS011;33181;49.246;7.372;2023-02-03T01:41:29;9.93;;;5.40;;
47429;SDS011;33181;49.246;7.372;2023-02-03T01:43:58;6.80;;;5.90;;
47429;SDS011;33181;49.246;7.372;2023-02-03T01:49:12;9.80;;;6.30;;
47429;SDS011;33181;49.246;7.372;2023-02-03T01:51:48;7.80;;;5.70;;
47429;SDS011;33181;49.246;7.372;2023-02-03T01:54:18;11.23;;;6.20;;
47429;SDS011;33181;49.246;7.372;2023-02-03T01:56:52;8.30;;;5.87;;
47429;SDS011;33181;49.246;7.372;2023-02-03T01:59:24;10.63;;;5.60;;
47429;SDS011;33181;49.246;7.372;2023-02-03T02:01:53;9.63;;;5.47;;
47429;SDS011;33181;49.246;7.372;2023-02-03T02:04:19;7.83;;;5.63;;
47429;SDS011;33181;49.246;7.372;2023-02-03T02:06:49;8.30;;;6.20;;
47429;SDS011;33181;49.246;7.372;2023-02-03T02:09:15;8.83;;;6.17;;
47429;SDS011;33181;49.246;7.372;2023-02-03T02:11:41;9.80;;;6.47;;
47429;SDS011;33181;49.246;7.372;2023-02-03T02:14:07;8.30;;;6.70;;
47429;SDS011;33181;49.246;7.372;2023-02-03T02:25:10;10.50;;;7.10;;
47429;SDS011;33181;49.246;7.372;2023-02-03T02:28:19;11.17;;;7.63;;
47429;SDS011;33181;49.246;7.372;2023-02-03T02:40:22;15.00;;;8.30;;
47429;SDS011;33181;49.246;7.372;2023-02-03T02:43:12;12.17;;;7.47;;
47429;SDS011;33181;49.246;7.372;2023-02-03T02:46:11;12.03;;;8.53;;
47429;SDS011;33181;49.246;7.372;2023-02-03T02:52:18;14.00;;;8.53;;
47429;SDS011;33181;49.246;7.372;2023-02-03T02:54:53;11.17;;;8.40;;
47429;SDS011;33181;49.246;7.372;2023-02-03T02:57:25;12.50;;;8.87;;
47429;SDS011;33181;49.246;7.372;2023-02-03T02:59:52;14.63;;;9.10;;
47429;SDS011;33181;49.246;7.372;2023-02-03T03:02:18;17.07;;;9.13;;
47429;SDS011;33181;49.246;7.372;2023-02-03T03:04:44;15.10;;;9.67;;
47429;SDS011;33181;49.246;7.372;2023-02-03T03:07:14;15.00;;;9.70;;
47429;SDS011;33181;49.246;7.372;2023-02-03T03:09:47;13.13;;;8.87;;
47429;SDS011;33181;49.246;7.372;2023-02-03T03:12:28;11.77;;;8.20;;
47429;SDS011;33181;49.246;7.372;2023-02-03T03:15:00;12.97;;;8.00;;
47429;SDS011;33181;49.246;7.372;2023-02-03T03:17:41;13.43;;;8.50;;
47429;SDS011;33181;49.246;7.372;2023-02-03T03:20:16;12.90;;;9.53;;
47429;SDS011;33181;49.246;7.372;2023-02-03T03:22:47;11.50;;;8.40;;
47429;SDS011;33181;49.246;7.372;2023-02-03T03:25:24;16.70;;;8.93;;
47429;SDS011;33181;49.246;7.372;2023-02-03T03:28:00;14.90;;;8.60;;
47429;SDS011;33181;49.246;7.372;2023-02-03T03:30:34;18.73;;;9.03;;
47429;SDS011;33181;49.246;7.372;2023-02-03T03:33:03;13.17;;;8.67;;
47429;SDS011;33181;49.246;7.372;2023-02-03T03:35:34;12.30;;;8.63;;
47429;SDS011;33181;49.246;7.372;2023-02-03T03:38:14;15.27;;;9.40;;
47429;SDS011;33181;49.246;7.372;2023-02-03T03:41:19;15.53;;;8.30;;
47429;SDS011;33181;49.246;7.372;2023-02-03T03:44:13;10.70;;;8.47;;
47429;SDS011;33181;49.246;7.372;2023-02-03T03:46:52;13.03;;;8.40;;
47429;SDS011;33181;49.246;7.372;2023-02-03T03:49:30;15.13;;;8.90;;
47429;SDS011;33181;49.246;7.372;2023-02-03T03:52:00;13.40;;;8.20;;
47429;SDS011;33181;49.246;7.372;2023-02-03T03:54:32;13.77;;;8.87;;
47429;SDS011;33181;49.246;7.372;2023-02-03T03:57:22;12.07;;;8.57;;
47429;SDS011;33181;49.246;7.372;2023-02-03T04:00:09;13.97;;;8.63;;
47429;SDS011;33181;49.246;7.372;2023-02-03T04:02:41;16.80;;;8.80;;
47429;SDS011;33181;49.246;7.372;2023-02-03T04:05:10;13.77;;;8.80;;
47429;SDS011;33181;49.246;7.372;2023-02-03T04:07:38;12.60;;;8.23;;
47429;SDS011;33181;49.246;7.372;2023-02-03T04:10:31;14.37;;;8.80;;
47429;SDS011;33181;49.246;7.372;2023-02-03T04:13:00;17.77;;;9.03;;
47429;SDS011;33181;49.246;7.372;2023-02-03T04:15:28;11.53;;;8.83;;
47429;SDS011;33181;49.246;7.372;2023-02-03T04:17:55;18.13;;;8.47;;
47429;SDS011;33181;49.246;7.372;2023-02-03T04:20:22;11.97;;;8.70;;
47429;SDS011;33181;49.246;7.372;2023-02-03T04:22:48;12.13;;;8.30;;
47429;SDS011;33181;49.246;7.372;2023-02-03T04:25:14;12.40;;;8.57;;
47429;SDS011;33181;49.246;7.372;2023-02-03T04:27:40;12.00;;;7.70;;
47429;SDS011;33181;49.246;7.372;2023-02-03T04:30:06;16.50;;;9.00;;
47429;SDS011;33181;49.246;7.372;2023-02-03T04:32:33;14.03;;;8.13;;
47429;SDS011;33181;49.246;7.372;2023-02-03T04:34:59;11.33;;;7.60;;
47429;SDS011;33181;49.246;7.372;2023-02-03T04:37:26;13.70;;;8.60;;
47429;SDS011;33181;49.246;7.372;2023-02-03T04:39:52;18.37;;;8.50;;
47429;SDS011;33181;49.246;7.372;2023-02-03T04:42:19;11.00;;;8.00;;
47429;SDS011;33181;49.246;7.372;2023-02-03T04:44:46;12.13;;;7.60;;
47429;SDS011;33181;49.246;7.372;2023-02-03T04:47:11;12.63;;;8.20;;
47429;SDS011;33181;49.246;7.372;2023-02-03T04:49:37;11.07;;;7.80;;
47429;SDS011;33181;49.246;7.372;2023-02-03T04:52:03;14.73;;;8.27;;
47429;SDS011;33181;49.246;7.372;2023-02-03T04:54:30;11.73;;;7.90;;
47429;SDS011;33181;49.246;7.372;2023-02-03T04:56:55;10.53;;;7.93;;
47429;SDS011;33181;49.246;7.372;2023-02-03T04:59:21;11.57;;;8.07;;
47429;SDS011;33181;49.246;7.372;2023-02-03T05:01:47;10.87;;;7.80;;
47429;SDS011;33181;49.246;7.372;2023-02-03T05:04:12;14.43;;;8.30;;
47429;SDS011;33181;49.246;7.372;2023-02-03T05:06:38;17.83;;;8.37;;
47429;SDS011;33181;49.246;7.372;2023-02-03T05:09:04;12.17;;;8.47;;
47429;SDS011;33181;49.246;7.372;2023-02-03T05:11:29;13.70;;;8.43;;
47429;SDS011;33181;49.246;7.372;2023-02-03T05:13:55;12.07;;;7.93;;
47429;SDS011;33181;49.246;7.372;2023-02-03T05:16:21;10.93;;;8.17;;
47429;SDS011;33181;49.246;7.372;2023-02-03T05:18:47;18.20;;;8.23;;
47429;SDS011;33181;49.246;7.372;2023-02-03T05:21:13;12.27;;;8.00;;
47429;SDS011;33181;49.246;7.372;2023-02-03T05:23:39;12.40;;;8.10;;
47429;SDS011;33181;49.246;7.372;2023-02-03T05:26:04;14.13;;;8.17;;
47429;SDS011;33181;49.246;7.372;2023-02-03T05:28:30;12.10;;;7.80;;
47429;SDS011;33181;49.246;7.372;2023-02-03T05:30:57;11.60;;;7.93;;
47429;SDS011;33181;49.246;7.372;2023-02-03T05:33:24;10.60;;;6.80;;
47429;SDS011;33181;49.246;7.372;2023-02-03T05:35:49;10.10;;;7.30;;
47429;SDS011;33181;49.246;7.372;2023-02-03T05:38:15;10.10;;;7.43;;
47429;SDS011;33181;49.246;7.372;2023-02-03T05:40:41;11.97;;;7.00;;
47429;SDS011;33181;49.246;7.372;2023-02-03T05:43:26;11.93;;;8.10;;
47429;SDS011;33181;49.246;7.372;2023-02-03T05:45:52;11.57;;;7.67;;
47429;SDS011;33181;49.246;7.372;2023-02-03T05:48:18;13.63;;;8.30;;
47429;SDS011;33181;49.246;7.372;2023-02-03T05:50:44;13.00;;;8.37;;
47429;SDS011;33181;49.246;7.372;2023-02-03T05:53:10;12.37;;;8.50;;
47429;SDS011;33181;49.246;7.372;2023-02-03T05:55:36;15.60;;;7.60;;
47429;SDS011;33181;49.246;7.372;2023-02-03T05:58:02;12.60;;;6.90;;
47429;SDS011;33181;49.246;7.372;2023-02-03T06:00:28;10.37;;;7.40;;
47429;SDS011;33181;49.246;7.372;2023-02-03T06:02:57;11.93;;;7.33;;
47429;SDS011;33181;49.246;7.372;2023-02-03T06:05:26;10.80;;;7.23;;
47429;SDS011;33181;49.246;7.372;2023-02-03T06:07:52;9.70;;;7.37;;
47429;SDS011;33181;49.246;7.372;2023-02-03T06:10:18;9.10;;;7.03;;
47429;SDS011;33181;49.246;7.372;2023-02-03T06:12:45;14.83;;;7.87;;
47429;SDS011;33181;49.246;7.372;2023-02-03T06:15:11;11.83;;;7.77;;
47429;SDS011;33181;49.246;7.372;2023-02-03T06:17:37;13.50;;;7.77;;
47429;SDS011;33181;49.246;7.372;2023-02-03T06:20:07;10.80;;;7.53;;
47429;SDS011;33181;49.246;7.372;2023-02-03T06:22:34;17.43;;;7.57;;
47429;SDS011;33181;49.246;7.372;2023-02-03T06:25:00;9.50;;;6.80;;
47429;SDS011;33181;49.246;7.372;2023-02-03T06:27:26;15.37;;;8.00;;
47429;SDS011;33181;49.246;7.372;2023-02-03T06:29:52;9.67;;;7.57;;
47429;SDS011;33181;49.246;7.372;2023-02-03T06:32:18;9.67;;;7.50;;
47429;SDS011;33181;49.246;7.372;2023-02-03T06:34:44;11.80;;;7.80;;
47429;SDS011;33181;49.246;7.372;2023-02-03T06:37:09;11.27;;;7.67;;
47429;SDS011;33181;49.246;7.372;2023-02-03T06:39:35;11.20;;;7.67;;
47429;SDS011;33181;49.246;7.372;2023-02-03T06:42:01;11.27;;;7.77;;
47429;SDS011;33181;49.246;7.372;2023-02-03T06:44:26;12.03;;;8.40;;
47429;SDS011;33181;49.246;7.372;2023-02-03T06:46:52;10.00;;;7.77;;
47429;SDS011;33181;49.246;7.372;2023-02-03T06:49:18;20.13;;;8.50;;
47429;SDS011;33181;49.246;7.372;2023-02-03T06:51:44;11.10;;;8.40;;
47429;SDS011;33181;49.246;7.372;2023-02-03T06:54:10;13.57;;;8.20;;
47429;SDS011;33181;49.246;7.372;2023-02-03T06:56:37;12.33;;;8.20;;
47429;SDS011;33181;49.246;7.372;2023-02-03T06:59:03;13.33;;;8.03;;
47429;SDS011;33181;49.246;7.372;2023-02-03T07:01:29;11.17;;;7.80;;
47429;SDS011;33181;49.246;7.372;2023-02-03T07:03:56;12.10;;;8.63;;
47429;SDS011;33181;49.246;7.372;2023-02-03T07:06:26;14.77;;;8.63;;
47429;SDS011;33181;49.246;7.372;2023-02-03T07:08:58;11.43;;;8.60;;
47429;SDS011;33181;49.246;7.372;2023-02-03T07:11:25;13.30;;;7.90;;
47429;SDS011;33181;49.246;7.372;2023-02-03T07:13:51;11.23;;;7.30;;
47429;SDS011;33181;49.246;7.372;2023-02-03T07:16:17;8.23;;;7.03;;
47429;SDS011;33181;49.246;7.372;2023-02-03T07:18:43;10.33;;;7.20;;
47429;SDS011;33181;49.246;7.372;2023-02-03T07:21:10;8.97;;;7.37;;
47429;SDS011;33181;49.246;7.372;2023-02-03T07:23:36;12.50;;;7.27;;
47429;SDS011;33181;49.246;7.372;2023-02-03T07:26:03;9.43;;;7.17;;
47429;SDS011;33181;49.246;7.372;2023-02-03T07:28:31;11.27;;;7.33;;
47429;SDS011;33181;49.246;7.372;2023-02-03T07:31:00;10.83;;;7.07;;
47429;SDS011;33181;49.246;7.372;2023-02-03T07:33:28;9.47;;;7.33;;
47429;SDS011;33181;49.246;7.372;2023-02-03T07:35:56;8.80;;;7.10;;
47429;SDS011;33181;49.246;7.372;2023-02-03T07:38:24;10.67;;;7.40;;
47429;SDS011;33181;49.246;7.372;2023-02-03T07:40:52;10.33;;;7.37;;
47429;SDS011;33181;49.246;7.372;2023-02-03T07:43:18;8.10;;;6.97;;
47429;SDS011;33181;49.246;7.372;2023-02-03T07:45:44;12.80;;;7.17;;
47429;SDS011;33181;49.246;7.372;2023-02-03T07:48:11;8.30;;;6.83;;
47429;SDS011;33181;49.246;7.372;2023-02-03T07:50:37;12.70;;;7.20;;
47429;SDS011;33181;49.246;7.372;2023-02-03T07:53:02;9.53;;;7.40;;
47429;SDS011;33181;49.246;7.372;2023-02-03T07:55:28;9.87;;;7.10;;
47429;SDS011;33181;49.246;7.372;2023-02-03T07:57:55;11.33;;;6.87;;
47429;SDS011;33181;49.246;7.372;2023-02-03T08:00:22;9.90;;;7.57;;
47429;SDS011;33181;49.246;7.372;2023-02-03T08:02:49;9.40;;;7.63;;
47429;SDS011;33181;49.246;7.372;2023-02-03T08:05:15;8.80;;;6.90;;
47429;SDS011;33181;49.246;7.372;2023-02-03T08:07:42;9.97;;;7.00;;
47429;SDS011;33181;49.246;7.372;2023-02-03T08:10:08;11.50;;;7.20;;
47429;SDS011;33181;49.246;7.372;2023-02-03T08:12:36;8.67;;;6.80;;
47429;SDS011;33181;49.246;7.372;2023-02-03T08:15:02;11.03;;;6.60;;
47429;SDS011;33181;49.246;7.372;2023-02-03T08:17:29;11.57;;;6.00;;
47429;SDS011;33181;49.246;7.372;2023-02-03T08:19:54;9.43;;;7.10;;
47429;SDS011;33181;49.246;7.372;2023-02-03T08:22:20;10.20;;;6.83;;
47429;SDS011;33181;49.246;7.372;2023-02-03T08:24:46;8.60;;;6.73;;
47429;SDS011;33181;49.246;7.372;2023-02-03T08:27:20;10.47;;;7.17;;
47429;SDS011;33181;49.246;7.372;2023-02-03T08:29:47;10.83;;;6.53;;
47429;SDS011;33181;49.246;7.372;2023-02-03T08:32:15;7.97;;;6.43;;
47429;SDS011;33181;49.246;7.372;2023-02-03T08:34:45;6.90;;;6.10;;
47429;SDS011;33181;49.246;7.372;2023-02-03T08:37:13;10.97;;;6.97;;
47429;SDS011;33181;49.246;7.372;2023-02-03T08:39:41;10.17;;;6.60;;
47429;SDS011;33181;49.246;7.372;2023-02-03T08:42:08;15.73;;;7.80;;
47429;SDS011;33181;49.246;7.372;2023-02-03T08:44:35;11.40;;;7.00;;
47429;SDS011;33181;49.246;7.372;2023-02-03T08:47:03;8.73;;;6.30;;
47429;SDS011;33181;49.246;7.372;2023-02-03T08:49:30;7.70;;;6.40;;
47429;SDS011;33181;49.246;7.372;2023-02-03T08:51:57;8.63;;;6.83;;
47429;SDS011;33181;49.246;7.372;2023-02-03T08:54:23;9.17;;;6.30;;
47429;SDS011;33181;49.246;7.372;2023-02-03T08:56:50;8.30;;;6.47;;
47429;SDS011;33181;49.246;7.372;2023-02-03T08:59:15;9.43;;;6.27;;
47429;SDS011;33181;49.246;7.372;2023-02-03T09:01:42;8.53;;;5.77;;
47429;SDS011;33181;49.246;7.372;2023-02-03T09:04:10;9.67;;;6.30;;
47429;SDS011;33181;49.246;7.372;2023-02-03T09:06:36;8.83;;;6.23;;
47429;SDS011;33181;49.246;7.372;2023-02-03T09:09:03;7.90;;;6.13;;
47429;SDS011;33181;49.246;7.372;2023-02-03T09:11:29;8.13;;;5.73;;
47429;SDS011;33181;49.246;7.372;2023-02-03T09:13:55;8.07;;;5.50;;
47429;SDS011;33181;49.246;7.372;2023-02-03T09:16:22;7.93;;;6.10;;
47429;SDS011;33181;49.246;7.372;2023-02-03T09:18:49;7.83;;;5.10;;
47429;SDS011;33181;49.246;7.372;2023-02-03T09:21:15;10.10;;;6.30;;
47429;SDS011;33181;49.246;7.372;2023-02-03T09:23:44;9.37;;;5.70;;
47429;SDS011;33181;49.246;7.372;2023-02-03T09:26:11;7.77;;;5.40;;
47429;SDS011;33181;49.246;7.372;2023-02-03T09:28:38;8.20;;;5.13;;
47429;SDS011;33181;49.246;7.372;2023-02-03T09:31:06;8.70;;;5.30;;
47429;SDS011;33181;49.246;7.372;2023-02-03T09:33:41;7.97;;;5.20;;
47429;SDS011;33181;49.246;7.372;2023-02-03T09:36:08;7.07;;;5.43;;
47429;SDS011;33181;49.246;7.372;2023-02-03T09:38:34;7.27;;;5.23;;
47429;SDS011;33181;49.246;7.372;2023-02-03T09:41:02;8.70;;;5.17;;
47429;SDS011;33181;49.246;7.372;2023-02-03T09:46:32;7.10;;;4.70;;
47429;SDS011;33181;49.246;7.372;2023-02-03T09:49:14;7.13;;;5.30;;
47429;SDS011;33181;49.246;7.372;2023-02-03T09:52:08;7.83;;;5.30;;
47429;SDS011;33181;49.246;7.372;2023-02-03T09:54:53;7.37;;;5.80;;
47429;SDS011;33181;49.246;7.372;2023-02-03T09:57:25;7.07;;;5.30;;
47429;SDS011;33181;49.246;7.372;2023-02-03T09:59:58;7.00;;;5.03;;
47429;SDS011;33181;49.246;7.372;2023-02-03T10:02:32;6.70;;;5.30;;
47429;SDS011;33181;49.246;7.372;2023-02-03T10:14:05;4.60;;;4.03;;
47429;SDS011;33181;49.246;7.372;2023-02-03T10:22:49;4.90;;;3.20;;
47429;SDS011;33181;49.246;7.372;2023-02-03T10:25:35;4.20;;;3.47;;
47429;SDS011;33181;49.246;7.372;2023-02-03T10:28:09;5.30;;;3.67;;
47429;SDS011;33181;49.246;7.372;2023-02-03T10:30:45;4.43;;;3.60;;
47429;SDS011;33181;49.246;7.372;2023-02-03T10:33:25;4.00;;;3.10;;
47429;SDS011;33181;49.246;7.372;2023-02-03T10:41:38;4.23;;;3.57;;
47429;SDS011;33181;49.246;7.372;2023-02-03T10:44:05;4.23;;;3.37;;
47429;SDS011;33181;49.246;7.372;2023-02-03T10:46:34;4.70;;;3.40;;
47429;SDS011;33181;49.246;7.372;2023-02-03T10:49:04;4.97;;;3.30;;
47429;SDS011;33181;49.246;7.372;2023-02-03T10:51:37;3.83;;;3.37;;
47429;SDS011;33181;49.246;7.372;2023-02-03T10:54:32;5.20;;;3.30;;
47429;SDS011;33181;49.246;7.372;2023-02-03T10:57:10;4.50;;;3.53;;
47429;SDS011;33181;49.246;7.372;2023-02-03T10:59:48;5.83;;;3.30;;
47429;SDS011;33181;49.246;7.372;2023-02-03T11:02:21;4.73;;;3.80;;
47429;SDS011;33181;49.246;7.372;2023-02-03T11:07:44;4.70;;;3.67;;
47429;SDS011;33181;49.246;7.372;2023-02-03T11:13:11;4.93;;;3.37;;
47429;SDS011;33181;49.246;7.372;2023-02-03T11:15:55;4.97;;;3.30;;
47429;SDS011;33181;49.246;7.372;2023-02-03T11:18:33;3.70;;;3.37;;
47429;SDS011;33181;49.246;7.372;2023-02-03T11:21:18;4.33;;;3.30;;
47429;SDS011;33181;49.246;7.372;2023-02-03T11:23:52;4.70;;;3.30;;
47429;SDS011;33181;49.246;7.372;2023-02-03T11:26:53;3.43;;;3.10;;
47429;SDS011;33181;49.246;7.372;2023-02-03T11:29:42;3.93;;;3.20;;
47429;SDS011;33181;49.246;7.372;2023-02-03T11:32:23;3.50;;;2.90;;
47429;SDS011;33181;49.246;7.372;2023-02-03T11:35:13;3.77;;;3.20;;
47429;SDS011;33181;49.246;7.372;2023-02-03T11:37:53;3.93;;;2.97;;
47429;SDS011;33181;49.246;7.372;2023-02-03T11:40:26;4.70;;;2.90;;
47429;SDS011;33181;49.246;7.372;2023-02-03T11:43:02;3.10;;;2.80;;
47429;SDS011;33181;49.246;7.372;2023-02-03T11:45:49;3.60;;;3.10;;
47429;SDS011;33181;49.246;7.372;2023-02-03T11:48:36;3.23;;;2.77;;
47429;SDS011;33181;49.246;7.372;2023-02-03T12:24:14;3.90;;;3.50;;
47429;SDS011;33181;49.246;7.372;2023-02-03T12:27:32;4.17;;;3.40;;
47429;SDS011;33181;49.246;7.372;2023-02-03T12:30:17;6.67;;;3.43;;
47429;SDS011;33181;49.246;7.372;2023-02-03T12:32:53;4.63;;;3.47;;
47429;SDS011;33181;49.246;7.372;2023-02-03T12:35:29;4.13;;;3.10;;
47429;SDS011;33181;49.246;7.372;2023-02-03T12:38:12;4.00;;;3.30;;
47429;SDS011;33181;49.246;7.372;2023-02-03T12:40:58;3.20;;;2.90;;
47429;SDS011;33181;49.246;7.372;2023-02-03T12:52:00;5.30;;;3.50;;
47429;SDS011;33181;49.246;7.372;2023-02-03T12:54:40;4.07;;;3.10;;
47429;SDS011;33181;49.246;7.372;2023-02-03T12:57:19;3.90;;;3.30;;
47429;SDS011;33181;49.246;7.372;2023-02-03T13:00:08;5.57;;;3.37;;
47429;SDS011;33181;49.246;7.372;2023-02-03T13:08:50;4.43;;;3.30;;
47429;SDS011;33181;49.246;7.372;2023-02-03T13:17:02;4.40;;;3.13;;
47429;SDS011;33181;49.246;7.372;2023-02-03T13:19:41;5.27;;;3.40;;
47429;SDS011;33181;49.246;7.372;2023-02-03T13:22:14;4.80;;;3.77;;
47429;SDS011;33181;49.246;7.372;2023-02-03T13:24:42;4.40;;;3.20;;
47429;SDS011;33181;49.246;7.372;2023-02-03T13:30:28;3.40;;;3.10;;
47429;SDS011;33181;49.246;7.372;2023-02-03T13:42:24;3.13;;;2.80;;
47429;SDS011;33181;49.246;7.372;2023-02-03T13:45:08;3.27;;;2.97;;
47429;SDS011;33181;49.246;7.372;2023-02-03T13:47:37;4.17;;;3.33;;
47429;SDS011;33181;49.246;7.372;2023-02-03T13:50:07;6.73;;;3.20;;
47429;SDS011;33181;49.246;7.372;2023-02-03T13:52:56;3.87;;;3.20;;
47429;SDS011;33181;49.246;7.372;2023-02-03T13:55:36;3.90;;;3.27;;
47429;SDS011;33181;49.246;7.372;2023-02-03T13:58:17;3.63;;;3.20;;
47429;SDS011;33181;49.246;7.372;2023-02-03T14:05:47;3.93;;;3.53;;
47429;SDS011;33181;49.246;7.372;2023-02-03T14:08:40;4.50;;;3.47;;
47429;SDS011;33181;49.246;7.372;2023-02-03T14:16:38;4.30;;;3.30;;
47429;SDS011;33181;49.246;7.372;2023-02-03T14:24:37;6.87;;;3.70;;
47429;SDS011;33181;49.246;7.372;2023-02-03T14:27:18;6.47;;;4.03;;
47429;SDS011;33181;49.246;7.372;2023-02-03T14:35:34;5.07;;;3.50;;
47429;SDS011;33181;49.246;7.372;2023-02-03T14:38:13;5.90;;;3.73;;
47429;SDS011;33181;49.246;7.372;2023-02-03T14:43:26;4.67;;;3.80;;
47429;SDS011;33181;49.246;7.372;2023-02-03T14:58:22;6.20;;;3.90;;
47429;SDS011;33181;49.246;7.372;2023-02-03T15:01:03;4.40;;;3.60;;
47429;SDS011;33181;49.246;7.372;2023-02-03T15:03:32;5.53;;;3.90;;
47429;SDS011;33181;49.246;7.372;2023-02-03T15:06:00;4.87;;;4.00;;
47429;SDS011;33181;49.246;7.372;2023-02-03T15:11:20;5.17;;;3.73;;
47429;SDS011;33181;49.246;7.372;2023-02-03T15:13:56;5.67;;;4.30;;
47429;SDS011;33181;49.246;7.372;2023-02-03T15:17:31;4.90;;;3.93;;
47429;SDS011;33181;49.246;7.372;2023-02-03T15:19:49;4.60;;;4.10;;
47429;SDS011;33181;49.246;7.372;2023-02-03T15:22:26;4.83;;;3.90;;
47429;SDS011;33181;49.246;7.372;2023-02-03T15:24:58;4.27;;;3.60;;
47429;SDS011;33181;49.246;7.372;2023-02-03T15:27:28;5.37;;;4.30;;
47429;SDS011;33181;49.246;7.372;2023-02-03T15:29:56;6.53;;;4.20;;
47429;SDS011;33181;49.246;7.372;2023-02-03T15:32:38;5.33;;;4.07;;
47429;SDS011;33181;49.246;7.372;2023-02-03T15:35:15;6.33;;;4.00;;
47429;SDS011;33181;49.246;7.372;2023-02-03T15:40:21;7.20;;;5.20;;
47429;SDS011;33181;49.246;7.372;2023-02-03T15:42:59;5.43;;;4.50;;
47429;SDS011;33181;49.246;7.372;2023-02-03T15:45:53;4.10;;;3.67;;
47429;SDS011;33181;49.246;7.372;2023-02-03T15:48:35;5.80;;;4.20;;
47429;SDS011;33181;49.246;7.372;2023-02-03T15:51:08;5.40;;;4.30;;
47429;SDS011;33181;49.246;7.372;2023-02-03T15:56:33;5.17;;;4.30;;
47429;SDS011;33181;49.246;7.372;2023-02-03T16:01:51;5.53;;;4.77;;
47429;SDS011;33181;49.246;7.372;2023-02-03T16:04:17;7.43;;;4.57;;
47429;SDS011;33181;49.246;7.372;2023-02-03T16:06:46;4.80;;;4.10;;
47429;SDS011;33181;49.246;7.372;2023-02-03T16:12:13;6.60;;;4.87;;
47429;SDS011;33181;49.246;7.372;2023-02-03T16:14:43;6.43;;;4.30;;
47429;SDS011;33181;49.246;7.372;2023-02-03T16:17:16;5.13;;;4.23;;
47429;SDS011;33181;49.246;7.372;2023-02-03T16:20:18;6.67;;;4.53;;
47429;SDS011;33181;49.246;7.372;2023-02-03T16:22:59;7.87;;;4.10;;
47429;SDS011;33181;49.246;7.372;2023-02-03T16:25:42;6.17;;;4.70;;
47429;SDS011;33181;49.246;7.372;2023-02-03T16:28:26;5.50;;;4.30;;
47429;SDS011;33181;49.246;7.372;2023-02-03T16:31:20;5.17;;;4.67;;
47429;SDS011;33181;49.246;7.372;2023-02-03T16:34:15;6.70;;;4.40;;
47429;SDS011;33181;49.246;7.372;2023-02-03T16:37:12;6.10;;;4.70;;
47429;SDS011;33181;49.246;7.372;2023-02-03T16:40:06;6.47;;;4.73;;
47429;SDS011;33181;49.246;7.372;2023-02-03T16:42:54;5.90;;;4.70;;
47429;SDS011;33181;49.246;7.372;2023-02-03T16:45:38;7.10;;;5.30;;
47429;SDS011;33181;49.246;7.372;2023-02-03T16:48:23;6.47;;;5.37;;
47429;SDS011;33181;49.246;7.372;2023-02-03T16:51:11;8.00;;;5.13;;
47429;SDS011;33181;49.246;7.372;2023-02-03T16:53:43;7.33;;;5.40;;
47429;SDS011;33181;49.246;7.372;2023-02-03T16:56:12;6.37;;;5.50;;
47429;SDS011;33181;49.246;7.372;2023-02-03T16:58:38;6.70;;;5.30;;
47429;SDS011;33181;49.246;7.372;2023-02-03T17:01:05;6.73;;;5.53;;
47429;SDS011;33181;49.246;7.372;2023-02-03T17:03:33;6.73;;;5.60;;
47429;SDS011;33181;49.246;7.372;2023-02-03T17:06:01;6.40;;;5.30;;
47429;SDS011;33181;49.246;7.372;2023-02-03T17:08:36;6.80;;;5.50;;
47429;SDS011;33181;49.246;7.372;2023-02-03T17:11:09;9.03;;;6.00;;
47429;SDS011;33181;49.246;7.372;2023-02-03T17:13:45;7.87;;;5.80;;
47429;SDS011;33181;49.246;7.372;2023-02-03T17:16:16;6.43;;;5.27;;
47429;SDS011;33181;49.246;7.372;2023-02-03T17:18:45;6.60;;;5.60;;
47429;SDS011;33181;49.246;7.372;2023-02-03T17:21:13;8.53;;;5.63;;
47429;SDS011;33181;49.246;7.372;2023-02-03T17:23:51;8.37;;;5.87;;
47429;SDS011;33181;49.246;7.372;2023-02-03T17:26:18;6.87;;;5.83;;
47429;SDS011;33181;49.246;7.372;2023-02-03T17:28:44;8.83;;;5.83;;
47429;SDS011;33181;49.246;7.372;2023-02-03T17:31:14;8.50;;;6.60;;
47429;SDS011;33181;49.246;7.372;2023-02-03T17:33:43;8.47;;;6.70;;
47429;SDS011;33181;49.246;7.372;2023-02-03T17:36:11;7.90;;;6.53;;
47429;SDS011;33181;49.246;7.372;2023-02-03T17:38:43;7.60;;;6.20;;
47429;SDS011;33181;49.246;7.372;2023-02-03T17:41:13;7.83;;;6.57;;
47429;SDS011;33181;49.246;7.372;2023-02-03T17:43:44;8.50;;;6.30;;
47429;SDS011;33181;49.246;7.372;2023-02-03T17:46:12;8.43;;;6.53;;
47429;SDS011;33181;49.246;7.372;2023-02-03T17:48:41;9.17;;;6.53;;
47429;SDS011;33181;49.246;7.372;2023-02-03T17:51:11;9.20;;;7.00;;
47429;SDS011;33181;49.246;7.372;2023-02-03T17:53:46;7.60;;;6.27;;
47429;SDS011;33181;49.246;7.372;2023-02-03T17:56:16;7.63;;;6.57;;
47429;SDS011;33181;49.246;7.372;2023-02-03T17:58:45;8.30;;;6.77;;
47429;SDS011;33181;49.246;7.372;2023-02-03T18:03:50;8.40;;;6.20;;